EZY81FJ EGKK-LIPZ
Flight info
| Callsign | EZY81FJ |
|---|---|
| Flight time | 2h 9m |
| Altitude | 35000 |
| Route | ODVIK Y311 DVR UL9 KONAN DCT KOK DCT DENOX DCT REMBA DCT ARCKY DCT LIRSU DCT KRH DCT BATUB M738 TIRUL Y740 NATAG DCT LORLO DCT UNTAD DCT ADOSA/N0341F190 L612 ALBET |
| Aircraft | A21N/M-SDE2E3FGHIJ1RWXYZ/LB1G1 |
Departure
| Time | 2026-05-07 03:23 |
|---|---|
| Airport | London Gatwick Airport (EGKK) |
Arrival
| Time | 2026-05-07 05:32 |
|---|---|
| Airport | Venice Marco Polo Airport (LIPZ) |
| Time | Latitude | Longitude | Altitude | Speed | Heading |
|---|---|---|---|---|---|
| 2026-05-07 02:55 | 51.15463 | -0.17084 | 212 ft | 0 kts | 348° |
| 2026-05-07 03:12 | 51.15457 | -0.17083 | 213 ft | 3 kts | 347° |
| 2026-05-07 03:12 | 51.15438 | -0.17075 | 209 ft | 3 kts | 346° |
| 2026-05-07 03:13 | 51.15421 | -0.17070 | 205 ft | 3 kts | 24° |
| 2026-05-07 03:13 | 51.15419 | -0.17052 | 210 ft | 3 kts | 86° |
| 2026-05-07 03:13 | 51.15420 | -0.17039 | 207 ft | 0 kts | 77° |
| 2026-05-07 03:16 | 51.15426 | -0.17038 | 206 ft | 1 kts | 15° |
| 2026-05-07 03:16 | 51.15427 | -0.17055 | 211 ft | 1 kts | 266° |
| 2026-05-07 03:17 | 51.15416 | -0.17097 | 214 ft | 7 kts | 247° |
| 2026-05-07 03:17 | 51.15414 | -0.17104 | 213 ft | 2 kts | 248° |
| 2026-05-07 03:17 | 51.15402 | -0.17147 | 213 ft | 6 kts | 245° |
| 2026-05-07 03:17 | 51.15379 | -0.17235 | 206 ft | 11 kts | 250° |
| 2026-05-07 03:18 | 51.15339 | -0.17358 | 217 ft | 15 kts | 212° |
| 2026-05-07 03:18 | 51.15293 | -0.17514 | 205 ft | 18 kts | 258° |
| 2026-05-07 03:18 | 51.15263 | -0.17730 | 209 ft | 22 kts | 258° |
| 2026-05-07 03:18 | 51.15228 | -0.17988 | 210 ft | 26 kts | 257° |
| 2026-05-07 03:19 | 51.15188 | -0.18277 | 214 ft | 21 kts | 258° |
| 2026-05-07 03:19 | 51.15156 | -0.18532 | 213 ft | 26 kts | 258° |
| 2026-05-07 03:19 | 51.15117 | -0.18829 | 208 ft | 23 kts | 257° |
| 2026-05-07 03:19 | 51.15080 | -0.19100 | 205 ft | 27 kts | 259° |
| 2026-05-07 03:20 | 51.15044 | -0.19367 | 205 ft | 25 kts | 258° |
| 2026-05-07 03:20 | 51.15005 | -0.19653 | 207 ft | 27 kts | 256° |
| 2026-05-07 03:20 | 51.14968 | -0.19917 | 206 ft | 27 kts | 258° |
| 2026-05-07 03:20 | 51.14924 | -0.20232 | 209 ft | 31 kts | 257° |
| 2026-05-07 03:21 | 51.14876 | -0.20581 | 206 ft | 34 kts | 257° |
| 2026-05-07 03:21 | 51.14830 | -0.20915 | 208 ft | 28 kts | 257° |
| 2026-05-07 03:21 | 51.14780 | -0.21215 | 206 ft | 27 kts | 260° |
| 2026-05-07 03:21 | 51.14710 | -0.21393 | 210 ft | 20 kts | 189° |
| 2026-05-07 03:22 | 51.14576 | -0.21305 | 206 ft | 22 kts | 158° |
| 2026-05-07 03:22 | 51.14521 | -0.21119 | 205 ft | 12 kts | 79° |
| 2026-05-07 03:22 | 51.14527 | -0.21077 | 211 ft | 0 kts | 78° |
| 2026-05-07 03:22 | 51.14531 | -0.21045 | 209 ft | 19 kts | 77° |
| 2026-05-07 03:23 | 51.14616 | -0.20429 | 215 ft | 91 kts | 77° |
| 2026-05-07 03:23 | 51.14795 | -0.19141 | 205 ft | 145 kts | 77° |
| 2026-05-07 03:23 | 51.15032 | -0.17375 | 417 ft | 170 kts | 78° |
| 2026-05-07 03:23 | 51.15256 | -0.15510 | 1088 ft | 172 kts | 78° |
| 2026-05-07 03:24 | 51.15509 | -0.13622 | 1725 ft | 181 kts | 77° |
| 2026-05-07 03:24 | 51.15803 | -0.11554 | 2000 ft | 202 kts | 77° |
| 2026-05-07 03:24 | 51.16135 | -0.09230 | 2268 ft | 227 kts | 77° |
| 2026-05-07 03:24 | 51.16500 | -0.06638 | 2646 ft | 250 kts | 77° |
| 2026-05-07 03:25 | 51.16853 | -0.03867 | 3319 ft | 260 kts | 84° |
| 2026-05-07 03:25 | 51.16850 | -0.00967 | 4116 ft | 264 kts | 91° |
| 2026-05-07 03:25 | 51.16797 | 0.01969 | 4911 ft | 267 kts | 92° |
| 2026-05-07 03:25 | 51.16742 | 0.04942 | 5655 ft | 272 kts | 92° |
| 2026-05-07 03:26 | 51.16685 | 0.07958 | 5881 ft | 272 kts | 92° |
| 2026-05-07 03:26 | 51.16629 | 0.10959 | 5920 ft | 271 kts | 92° |
| 2026-05-07 03:26 | 51.16574 | 0.13958 | 5915 ft | 270 kts | 92° |
| 2026-05-07 03:26 | 51.16529 | 0.16952 | 5906 ft | 270 kts | 91° |
| 2026-05-07 03:27 | 51.16525 | 0.19948 | 5904 ft | 271 kts | 90° |
| 2026-05-07 03:27 | 51.16536 | 0.22948 | 5890 ft | 271 kts | 90° |
| 2026-05-07 03:27 | 51.16550 | 0.25948 | 5880 ft | 271 kts | 90° |
| 2026-05-07 03:27 | 51.16564 | 0.28943 | 5873 ft | 271 kts | 90° |
| 2026-05-07 03:28 | 51.16574 | 0.31934 | 5871 ft | 270 kts | 90° |
| 2026-05-07 03:28 | 51.16583 | 0.34929 | 5873 ft | 270 kts | 90° |
| 2026-05-07 03:28 | 51.16589 | 0.37931 | 5873 ft | 270 kts | 90° |
| 2026-05-07 03:28 | 51.16594 | 0.40924 | 5873 ft | 270 kts | 90° |
| 2026-05-07 03:29 | 51.16596 | 0.43916 | 5875 ft | 271 kts | 90° |
| 2026-05-07 03:29 | 51.16596 | 0.46918 | 5873 ft | 271 kts | 90° |
| 2026-05-07 03:29 | 51.16595 | 0.49921 | 5923 ft | 273 kts | 90° |
| 2026-05-07 03:29 | 51.16595 | 0.52964 | 6701 ft | 275 kts | 90° |
| 2026-05-07 03:30 | 51.16595 | 0.56019 | 7489 ft | 277 kts | 90° |
| 2026-05-07 03:30 | 51.16593 | 0.59117 | 8248 ft | 282 kts | 90° |
| 2026-05-07 03:30 | 51.16589 | 0.62261 | 9001 ft | 286 kts | 89° |
| 2026-05-07 03:30 | 51.16584 | 0.65415 | 9742 ft | 291 kts | 89° |
| 2026-05-07 03:31 | 51.16579 | 0.68681 | 10242 ft | 304 kts | 89° |
| 2026-05-07 03:31 | 51.16575 | 0.72173 | 10432 ft | 327 kts | 89° |
| 2026-05-07 03:31 | 51.16571 | 0.75879 | 10817 ft | 340 kts | 89° |
| 2026-05-07 03:31 | 51.16564 | 0.79677 | 11453 ft | 345 kts | 89° |
| 2026-05-07 03:32 | 51.16553 | 0.83517 | 12140 ft | 349 kts | 90° |
| 2026-05-07 03:32 | 51.16539 | 0.87397 | 12812 ft | 352 kts | 90° |
| 2026-05-07 03:32 | 51.16523 | 0.91311 | 13478 ft | 355 kts | 90° |
| 2026-05-07 03:32 | 51.16506 | 0.95267 | 14122 ft | 359 kts | 90° |
| 2026-05-07 03:33 | 51.16487 | 0.99256 | 14689 ft | 362 kts | 90° |
| 2026-05-07 03:33 | 51.16466 | 1.03283 | 15248 ft | 365 kts | 90° |
| 2026-05-07 03:33 | 51.16454 | 1.07338 | 15521 ft | 368 kts | 90° |
| 2026-05-07 03:33 | 51.16436 | 1.11426 | 16106 ft | 370 kts | 90° |
| 2026-05-07 03:34 | 51.16411 | 1.15534 | 16677 ft | 373 kts | 90° |
| 2026-05-07 03:34 | 51.16384 | 1.19687 | 17247 ft | 376 kts | 90° |
| 2026-05-07 03:34 | 51.16355 | 1.23866 | 17796 ft | 379 kts | 90° |
| 2026-05-07 03:34 | 51.16323 | 1.28081 | 18335 ft | 382 kts | 90° |
| 2026-05-07 03:35 | 51.16289 | 1.32332 | 18802 ft | 385 kts | 90° |
| 2026-05-07 03:35 | 51.16247 | 1.36616 | 19263 ft | 388 kts | 91° |
| 2026-05-07 03:35 | 51.16124 | 1.40921 | 19722 ft | 391 kts | 94° |
| 2026-05-07 03:35 | 51.15927 | 1.45265 | 20151 ft | 395 kts | 95° |
| 2026-05-07 03:36 | 51.15690 | 1.49635 | 20571 ft | 398 kts | 95° |
| 2026-05-07 03:36 | 51.15440 | 1.54045 | 21019 ft | 401 kts | 95° |
| 2026-05-07 03:36 | 51.15194 | 1.58470 | 21452 ft | 404 kts | 95° |
| 2026-05-07 03:36 | 51.14957 | 1.62939 | 21911 ft | 406 kts | 95° |
| 2026-05-07 03:37 | 51.14728 | 1.67437 | 22331 ft | 409 kts | 95° |
| 2026-05-07 03:37 | 51.14504 | 1.71968 | 22748 ft | 411 kts | 94° |
| 2026-05-07 03:37 | 51.14281 | 1.76520 | 23166 ft | 414 kts | 94° |
| 2026-05-07 03:37 | 51.14056 | 1.81102 | 23569 ft | 417 kts | 94° |
| 2026-05-07 03:38 | 51.13827 | 1.85719 | 23914 ft | 419 kts | 95° |
| 2026-05-07 03:38 | 51.13592 | 1.90355 | 24263 ft | 421 kts | 95° |
| 2026-05-07 03:38 | 51.13348 | 1.95014 | 24588 ft | 424 kts | 95° |
| 2026-05-07 03:38 | 51.13099 | 1.99708 | 24915 ft | 426 kts | 95° |
| 2026-05-07 03:39 | 51.12849 | 2.04408 | 25263 ft | 428 kts | 95° |
| 2026-05-07 03:39 | 51.12597 | 2.09145 | 25593 ft | 430 kts | 95° |
| 2026-05-07 03:39 | 51.12341 | 2.13890 | 25920 ft | 431 kts | 95° |
| 2026-05-07 03:39 | 51.12082 | 2.18652 | 26236 ft | 433 kts | 95° |
| 2026-05-07 03:40 | 51.11820 | 2.23445 | 26568 ft | 435 kts | 95° |
| 2026-05-07 03:40 | 51.11559 | 2.28255 | 26871 ft | 437 kts | 95° |
| 2026-05-07 03:40 | 51.11295 | 2.33080 | 27187 ft | 439 kts | 95° |
| 2026-05-07 03:40 | 51.11028 | 2.37924 | 27490 ft | 441 kts | 95° |
| 2026-05-07 03:41 | 51.10755 | 2.42797 | 27815 ft | 442 kts | 95° |
| 2026-05-07 03:41 | 51.10479 | 2.47673 | 28124 ft | 444 kts | 95° |
| 2026-05-07 03:41 | 51.10201 | 2.52572 | 28429 ft | 446 kts | 95° |
| 2026-05-07 03:41 | 51.09918 | 2.57496 | 28724 ft | 448 kts | 95° |
| 2026-05-07 03:42 | 51.09634 | 2.62445 | 29008 ft | 450 kts | 95° |
| 2026-05-07 03:42 | 51.09158 | 2.67362 | 29274 ft | 451 kts | 103° |
| 2026-05-07 03:42 | 51.08427 | 2.72216 | 29538 ft | 453 kts | 104° |
| 2026-05-07 03:42 | 51.07685 | 2.77097 | 29802 ft | 454 kts | 104° |
| 2026-05-07 03:43 | 51.06939 | 2.81990 | 30082 ft | 456 kts | 104° |
| 2026-05-07 03:43 | 51.06191 | 2.86897 | 30316 ft | 457 kts | 103° |
| 2026-05-07 03:43 | 51.05441 | 2.91818 | 30538 ft | 459 kts | 103° |
| 2026-05-07 03:43 | 51.04691 | 2.96739 | 30821 ft | 458 kts | 103° |
| 2026-05-07 03:44 | 51.03940 | 3.01657 | 31123 ft | 457 kts | 103° |
| 2026-05-07 03:44 | 51.03188 | 3.06569 | 31414 ft | 457 kts | 103° |
| 2026-05-07 03:44 | 51.02436 | 3.11470 | 31704 ft | 457 kts | 103° |
| 2026-05-07 03:44 | 51.01682 | 3.16364 | 31987 ft | 456 kts | 104° |
| 2026-05-07 03:45 | 51.00923 | 3.21255 | 32276 ft | 456 kts | 104° |
| 2026-05-07 03:45 | 51.00163 | 3.26129 | 32559 ft | 455 kts | 104° |
| 2026-05-07 03:45 | 50.99657 | 3.29363 | 32746 ft | 455 kts | 104° |
| 2026-05-07 03:45 | 50.98895 | 3.34233 | 33053 ft | 454 kts | 103° |
| 2026-05-07 03:46 | 50.98135 | 3.39092 | 33368 ft | 453 kts | 103° |
| 2026-05-07 03:46 | 50.97376 | 3.43940 | 33671 ft | 452 kts | 103° |
| 2026-05-07 03:46 | 50.96619 | 3.48776 | 33954 ft | 452 kts | 103° |
| 2026-05-07 03:46 | 50.95859 | 3.53605 | 34194 ft | 452 kts | 104° |
| 2026-05-07 03:47 | 50.95094 | 3.58439 | 34417 ft | 451 kts | 104° |
| 2026-05-07 03:47 | 50.94326 | 3.63268 | 34632 ft | 451 kts | 104° |
| 2026-05-07 03:47 | 50.93556 | 3.68089 | 34832 ft | 452 kts | 104° |
| 2026-05-07 03:47 | 50.92780 | 3.72923 | 34983 ft | 452 kts | 104° |
| 2026-05-07 03:48 | 50.92005 | 3.77733 | 35009 ft | 449 kts | 104° |
| 2026-05-07 03:48 | 50.90463 | 3.87283 | 35007 ft | 447 kts | 104° |
| 2026-05-07 03:49 | 50.88919 | 3.96807 | 35009 ft | 446 kts | 104° |
| 2026-05-07 03:49 | 50.87127 | 4.06205 | 35015 ft | 446 kts | 111° |
| 2026-05-07 03:50 | 50.84905 | 4.15374 | 35016 ft | 446 kts | 111° |
| 2026-05-07 03:50 | 50.82689 | 4.24544 | 35021 ft | 446 kts | 111° |
| 2026-05-07 03:51 | 50.80452 | 4.33759 | 35024 ft | 446 kts | 111° |
| 2026-05-07 03:51 | 50.78236 | 4.42847 | 35022 ft | 446 kts | 111° |
| 2026-05-07 03:52 | 50.75995 | 4.51966 | 35022 ft | 445 kts | 111° |
| 2026-05-07 03:52 | 50.73754 | 4.61072 | 35018 ft | 445 kts | 111° |
| 2026-05-07 03:53 | 50.71505 | 4.70160 | 35000 ft | 445 kts | 111° |
| 2026-05-07 03:53 | 50.69254 | 4.79242 | 35004 ft | 444 kts | 111° |
| 2026-05-07 03:54 | 50.66996 | 4.88314 | 35010 ft | 444 kts | 111° |
| 2026-05-07 03:54 | 50.64634 | 4.97302 | 35009 ft | 444 kts | 114° |
| 2026-05-07 03:55 | 50.62027 | 5.06127 | 35005 ft | 444 kts | 115° |
| 2026-05-07 03:55 | 50.59369 | 5.14903 | 35008 ft | 444 kts | 115° |
| 2026-05-07 03:56 | 50.56755 | 5.23699 | 35008 ft | 444 kts | 115° |
| 2026-05-07 03:56 | 50.54171 | 5.32512 | 35008 ft | 443 kts | 115° |
| 2026-05-07 03:57 | 50.51582 | 5.41296 | 35001 ft | 443 kts | 115° |
| 2026-05-07 03:57 | 50.48975 | 5.50063 | 35001 ft | 443 kts | 115° |
| 2026-05-07 03:58 | 50.46350 | 5.58823 | 34996 ft | 443 kts | 115° |
| 2026-05-07 03:58 | 50.43732 | 5.67556 | 34991 ft | 443 kts | 115° |
| 2026-05-07 03:59 | 50.41111 | 5.76288 | 34983 ft | 442 kts | 115° |
| 2026-05-07 03:59 | 50.38485 | 5.85019 | 34980 ft | 442 kts | 115° |
| 2026-05-07 04:00 | 50.35851 | 5.93734 | 34972 ft | 443 kts | 115° |
| 2026-05-07 04:00 | 50.33207 | 6.02433 | 34974 ft | 443 kts | 116° |
| 2026-05-07 04:01 | 50.30550 | 6.11140 | 34963 ft | 443 kts | 116° |
| 2026-05-07 04:01 | 50.27778 | 6.19739 | 34965 ft | 443 kts | 119° |
| 2026-05-07 04:02 | 50.24780 | 6.28159 | 34952 ft | 443 kts | 120° |
| 2026-05-07 04:02 | 50.21760 | 6.36536 | 34953 ft | 443 kts | 120° |
| 2026-05-07 04:03 | 50.18721 | 6.44897 | 34944 ft | 442 kts | 125° |
| 2026-05-07 04:03 | 50.14883 | 6.52368 | 34943 ft | 441 kts | 131° |
| 2026-05-07 04:04 | 50.10937 | 6.59688 | 34941 ft | 441 kts | 130° |
| 2026-05-07 04:04 | 50.06987 | 6.66983 | 34942 ft | 441 kts | 131° |
| 2026-05-07 04:05 | 50.03026 | 6.74261 | 34939 ft | 441 kts | 131° |
| 2026-05-07 04:05 | 49.99057 | 6.81528 | 34939 ft | 441 kts | 131° |
| 2026-05-07 04:06 | 49.95095 | 6.88797 | 34935 ft | 441 kts | 131° |
| 2026-05-07 04:06 | 49.91134 | 6.96064 | 34927 ft | 441 kts | 131° |
| 2026-05-07 04:07 | 49.87161 | 7.03315 | 34930 ft | 441 kts | 131° |
| 2026-05-07 04:07 | 49.83175 | 7.10544 | 34931 ft | 441 kts | 131° |
| 2026-05-07 04:08 | 49.79179 | 7.17768 | 34934 ft | 442 kts | 131° |
| 2026-05-07 04:08 | 49.75187 | 7.24985 | 34938 ft | 442 kts | 131° |
| 2026-05-07 04:09 | 49.71184 | 7.32201 | 34952 ft | 442 kts | 131° |
| 2026-05-07 04:09 | 49.67174 | 7.39386 | 34939 ft | 442 kts | 131° |
| 2026-05-07 04:10 | 49.63160 | 7.46568 | 34948 ft | 442 kts | 131° |
| 2026-05-07 04:10 | 49.59172 | 7.53715 | 34946 ft | 442 kts | 131° |
| 2026-05-07 04:11 | 49.55152 | 7.60894 | 34931 ft | 442 kts | 131° |
| 2026-05-07 04:11 | 49.51134 | 7.68039 | 34937 ft | 441 kts | 132° |
| 2026-05-07 04:12 | 49.47106 | 7.75170 | 34947 ft | 441 kts | 132° |
| 2026-05-07 04:12 | 49.43105 | 7.82227 | 34948 ft | 441 kts | 132° |
| 2026-05-07 04:13 | 49.39077 | 7.89326 | 34950 ft | 441 kts | 132° |
| 2026-05-07 04:13 | 49.35046 | 7.96410 | 34953 ft | 441 kts | 132° |
| 2026-05-07 04:14 | 49.31004 | 8.03473 | 34963 ft | 441 kts | 132° |
| 2026-05-07 04:14 | 49.26965 | 8.10540 | 34966 ft | 440 kts | 132° |
| 2026-05-07 04:15 | 49.22928 | 8.17574 | 34962 ft | 440 kts | 133° |
| 2026-05-07 04:15 | 49.18884 | 8.24604 | 34965 ft | 440 kts | 133° |
| 2026-05-07 04:16 | 49.14842 | 8.31629 | 34955 ft | 440 kts | 133° |
| 2026-05-07 04:16 | 49.10795 | 8.38646 | 34957 ft | 440 kts | 133° |
| 2026-05-07 04:17 | 49.06733 | 8.45645 | 34960 ft | 440 kts | 133° |
| 2026-05-07 04:17 | 49.02667 | 8.52618 | 34964 ft | 440 kts | 133° |
| 2026-05-07 04:18 | 48.98392 | 8.59255 | 34954 ft | 438 kts | 144° |
| 2026-05-07 04:18 | 48.93384 | 8.64487 | 34950 ft | 437 kts | 147° |
| 2026-05-07 04:19 | 48.88342 | 8.69663 | 34954 ft | 437 kts | 147° |
| 2026-05-07 04:19 | 48.83303 | 8.74830 | 34949 ft | 437 kts | 147° |
| 2026-05-07 04:20 | 48.78258 | 8.79971 | 34947 ft | 437 kts | 148° |
| 2026-05-07 04:20 | 48.73212 | 8.85098 | 34945 ft | 436 kts | 148° |
| 2026-05-07 04:21 | 48.65656 | 8.92783 | 34945 ft | 436 kts | 148° |
| 2026-05-07 04:21 | 48.60612 | 8.97893 | 34949 ft | 436 kts | 148° |
| 2026-05-07 04:22 | 48.55561 | 9.02987 | 34954 ft | 437 kts | 148° |
| 2026-05-07 04:22 | 48.50508 | 9.08073 | 34960 ft | 437 kts | 148° |
| 2026-05-07 04:23 | 48.45456 | 9.13145 | 34959 ft | 436 kts | 148° |
| 2026-05-07 04:23 | 48.40405 | 9.18198 | 34963 ft | 435 kts | 148° |
| 2026-05-07 04:24 | 48.35364 | 9.23244 | 34968 ft | 435 kts | 148° |
| 2026-05-07 04:24 | 48.30364 | 9.28248 | 34968 ft | 435 kts | 148° |
| 2026-05-07 04:25 | 48.25297 | 9.33299 | 34966 ft | 434 kts | 149° |
| 2026-05-07 04:25 | 48.20283 | 9.38259 | 34964 ft | 434 kts | 149° |
| 2026-05-07 04:26 | 48.15233 | 9.43245 | 34952 ft | 435 kts | 149° |
| 2026-05-07 04:26 | 48.10193 | 9.48231 | 34960 ft | 434 kts | 149° |
| 2026-05-07 04:27 | 48.05157 | 9.53206 | 34967 ft | 433 kts | 149° |
| 2026-05-07 04:27 | 48.00134 | 9.58190 | 34960 ft | 434 kts | 148° |
| 2026-05-07 04:28 | 47.96018 | 9.62586 | 34967 ft | 434 kts | 147° |
| 2026-05-07 04:28 | 47.90375 | 9.68822 | 34963 ft | 435 kts | 147° |
| 2026-05-07 04:29 | 47.86292 | 9.73288 | 34969 ft | 434 kts | 147° |
| 2026-05-07 04:29 | 47.81394 | 9.78562 | 34958 ft | 434 kts | 148° |
| 2026-05-07 04:30 | 47.76497 | 9.83792 | 34958 ft | 433 kts | 148° |
| 2026-05-07 04:30 | 47.71608 | 9.89013 | 34968 ft | 433 kts | 148° |
| 2026-05-07 04:31 | 47.66726 | 9.94230 | 34976 ft | 432 kts | 148° |
| 2026-05-07 04:31 | 47.61876 | 9.99399 | 34974 ft | 432 kts | 148° |
| 2026-05-07 04:32 | 47.56995 | 10.04587 | 34963 ft | 432 kts | 149° |
| 2026-05-07 04:32 | 47.52109 | 10.09761 | 34950 ft | 432 kts | 149° |
| 2026-05-07 04:33 | 47.47223 | 10.14919 | 34963 ft | 431 kts | 149° |
| 2026-05-07 04:33 | 47.42319 | 10.20017 | 34970 ft | 430 kts | 152° |
| 2026-05-07 04:34 | 47.37262 | 10.24701 | 34976 ft | 428 kts | 154° |
| 2026-05-07 04:34 | 47.32143 | 10.29204 | 34981 ft | 428 kts | 154° |
| 2026-05-07 04:35 | 47.27040 | 10.33740 | 34978 ft | 428 kts | 154° |
| 2026-05-07 04:35 | 47.21959 | 10.38307 | 34959 ft | 428 kts | 154° |
| 2026-05-07 04:36 | 47.16891 | 10.42865 | 34994 ft | 427 kts | 154° |
| 2026-05-07 04:36 | 47.11830 | 10.47408 | 34996 ft | 426 kts | 154° |
| 2026-05-07 04:37 | 47.06771 | 10.51876 | 34989 ft | 422 kts | 158° |
| 2026-05-07 04:37 | 47.01360 | 10.54837 | 34985 ft | 412 kts | 168° |
| 2026-05-07 04:38 | 46.95868 | 10.57326 | 34981 ft | 413 kts | 168° |
| 2026-05-07 04:38 | 46.90770 | 10.59639 | 34977 ft | 412 kts | 168° |
| 2026-05-07 04:59 | 46.88606 | 10.60389 | 35006 ft | 409 kts | 173° |
| 2026-05-07 04:59 | 46.83114 | 10.62687 | 34943 ft | 411 kts | 167° |
| 2026-05-07 05:00 | 46.77698 | 10.65397 | 34924 ft | 411 kts | 167° |
| 2026-05-07 05:00 | 46.72301 | 10.67976 | 34933 ft | 410 kts | 169° |
| 2026-05-07 05:01 | 46.66808 | 10.69992 | 34929 ft | 407 kts | 173° |
| 2026-05-07 05:01 | 46.61273 | 10.71634 | 34931 ft | 406 kts | 174° |
| 2026-05-07 05:02 | 46.55740 | 10.73315 | 34933 ft | 406 kts | 173° |
| 2026-05-07 05:02 | 46.50216 | 10.75114 | 34938 ft | 407 kts | 172° |
| 2026-05-07 05:03 | 46.44707 | 10.76932 | 34636 ft | 403 kts | 172° |
| 2026-05-07 05:03 | 46.41993 | 10.77821 | 34217 ft | 399 kts | 173° |
| 2026-05-07 05:03 | 46.39294 | 10.78702 | 33722 ft | 395 kts | 173° |
| 2026-05-07 05:04 | 46.36625 | 10.79569 | 33238 ft | 391 kts | 173° |
| 2026-05-07 05:04 | 46.33985 | 10.80422 | 32764 ft | 387 kts | 173° |
| 2026-05-07 05:04 | 46.31365 | 10.81267 | 32304 ft | 384 kts | 173° |
| 2026-05-07 05:04 | 46.28781 | 10.82102 | 31856 ft | 379 kts | 173° |
| 2026-05-07 05:05 | 46.26219 | 10.82929 | 31407 ft | 375 kts | 173° |
| 2026-05-07 05:05 | 46.23689 | 10.83749 | 30930 ft | 371 kts | 174° |
| 2026-05-07 05:05 | 46.21189 | 10.84558 | 30484 ft | 367 kts | 174° |
| 2026-05-07 05:05 | 46.18703 | 10.85357 | 30003 ft | 365 kts | 174° |
| 2026-05-07 05:06 | 46.16234 | 10.86149 | 29498 ft | 360 kts | 174° |
| 2026-05-07 05:06 | 46.13812 | 10.86923 | 29050 ft | 355 kts | 174° |
| 2026-05-07 05:06 | 46.11420 | 10.87689 | 28616 ft | 349 kts | 174° |
| 2026-05-07 05:06 | 46.09069 | 10.88444 | 28200 ft | 343 kts | 174° |
| 2026-05-07 05:07 | 46.06759 | 10.89184 | 27785 ft | 339 kts | 174° |
| 2026-05-07 05:07 | 46.04475 | 10.89917 | 27359 ft | 334 kts | 174° |
| 2026-05-07 05:07 | 46.02217 | 10.90639 | 26970 ft | 331 kts | 174° |
| 2026-05-07 05:07 | 45.99978 | 10.91354 | 26572 ft | 327 kts | 174° |
| 2026-05-07 05:08 | 45.97763 | 10.92059 | 26168 ft | 324 kts | 174° |
| 2026-05-07 05:08 | 45.95572 | 10.92759 | 25769 ft | 321 kts | 174° |
| 2026-05-07 05:08 | 45.93396 | 10.93451 | 25365 ft | 319 kts | 174° |
| 2026-05-07 05:08 | 45.91231 | 10.94137 | 24960 ft | 318 kts | 173° |
| 2026-05-07 05:09 | 45.89069 | 10.94823 | 24557 ft | 318 kts | 173° |
| 2026-05-07 05:09 | 45.86913 | 10.95508 | 24149 ft | 317 kts | 173° |
| 2026-05-07 05:09 | 45.84759 | 10.96192 | 23713 ft | 317 kts | 173° |
| 2026-05-07 05:09 | 45.82607 | 10.96876 | 23245 ft | 316 kts | 174° |
| 2026-05-07 05:10 | 45.80471 | 10.97555 | 22813 ft | 313 kts | 173° |
| 2026-05-07 05:10 | 45.78356 | 10.98229 | 22402 ft | 310 kts | 173° |
| 2026-05-07 05:10 | 45.76258 | 10.98899 | 21991 ft | 308 kts | 173° |
| 2026-05-07 05:10 | 45.74172 | 10.99566 | 21593 ft | 306 kts | 173° |
| 2026-05-07 05:11 | 45.72095 | 11.00228 | 21198 ft | 305 kts | 173° |
| 2026-05-07 05:11 | 45.70026 | 11.00880 | 20799 ft | 305 kts | 173° |
| 2026-05-07 05:11 | 45.68020 | 11.01849 | 20660 ft | 308 kts | 156° |
| 2026-05-07 05:11 | 45.66279 | 11.03705 | 20581 ft | 315 kts | 146° |
| 2026-05-07 05:12 | 45.64621 | 11.05742 | 20510 ft | 315 kts | 146° |
| 2026-05-07 05:12 | 45.62965 | 11.07788 | 20425 ft | 315 kts | 146° |
| 2026-05-07 05:12 | 45.61313 | 11.09840 | 20341 ft | 315 kts | 146° |
| 2026-05-07 05:12 | 45.59663 | 11.11883 | 20285 ft | 314 kts | 146° |
| 2026-05-07 05:13 | 45.58005 | 11.13926 | 20215 ft | 314 kts | 146° |
| 2026-05-07 05:13 | 45.56351 | 11.15964 | 20147 ft | 314 kts | 146° |
| 2026-05-07 05:13 | 45.54695 | 11.18004 | 20076 ft | 314 kts | 146° |
| 2026-05-07 05:13 | 45.53046 | 11.20038 | 20003 ft | 314 kts | 146° |
| 2026-05-07 05:14 | 45.51394 | 11.22073 | 19929 ft | 314 kts | 146° |
| 2026-05-07 05:14 | 45.49740 | 11.24106 | 19859 ft | 314 kts | 146° |
| 2026-05-07 05:14 | 45.48088 | 11.26136 | 19785 ft | 314 kts | 146° |
| 2026-05-07 05:14 | 45.46433 | 11.28162 | 19636 ft | 314 kts | 146° |
| 2026-05-07 05:15 | 45.45338 | 11.29502 | 19415 ft | 313 kts | 146° |
| 2026-05-07 05:15 | 45.43683 | 11.31525 | 19038 ft | 313 kts | 146° |
| 2026-05-07 05:15 | 45.42026 | 11.33549 | 18654 ft | 314 kts | 145° |
| 2026-05-07 05:15 | 45.40368 | 11.35579 | 18260 ft | 315 kts | 144° |
| 2026-05-07 05:16 | 45.38163 | 11.38275 | 17717 ft | 315 kts | 144° |
| 2026-05-07 05:16 | 45.37038 | 11.39647 | 17445 ft | 315 kts | 144° |
| 2026-05-07 05:16 | 45.35375 | 11.41676 | 17078 ft | 315 kts | 144° |
| 2026-05-07 05:16 | 45.33714 | 11.43704 | 16697 ft | 314 kts | 144° |
| 2026-05-07 05:17 | 45.32054 | 11.45728 | 16323 ft | 315 kts | 144° |
| 2026-05-07 05:17 | 45.30393 | 11.47754 | 15948 ft | 315 kts | 144° |
| 2026-05-07 05:17 | 45.28733 | 11.49777 | 15571 ft | 315 kts | 143° |
| 2026-05-07 05:17 | 45.27066 | 11.51804 | 15201 ft | 315 kts | 143° |
| 2026-05-07 05:18 | 45.25400 | 11.53831 | 14822 ft | 316 kts | 143° |
| 2026-05-07 05:18 | 45.23730 | 11.55859 | 14447 ft | 316 kts | 143° |
| 2026-05-07 05:18 | 45.22055 | 11.57891 | 14069 ft | 317 kts | 143° |
| 2026-05-07 05:18 | 45.20378 | 11.59922 | 13682 ft | 318 kts | 143° |
| 2026-05-07 05:19 | 45.18694 | 11.61955 | 13267 ft | 318 kts | 143° |
| 2026-05-07 05:19 | 45.17019 | 11.63978 | 12964 ft | 314 kts | 143° |
| 2026-05-07 05:19 | 45.15367 | 11.65975 | 12913 ft | 312 kts | 143° |
| 2026-05-07 05:19 | 45.13695 | 11.67988 | 12197 ft | 322 kts | 143° |
| 2026-05-07 05:20 | 45.11986 | 11.70044 | 11793 ft | 320 kts | 143° |
| 2026-05-07 05:20 | 45.10322 | 11.72057 | 11715 ft | 308 kts | 143° |
| 2026-05-07 05:20 | 45.08722 | 11.74006 | 11593 ft | 299 kts | 141° |
| 2026-05-07 05:20 | 45.07536 | 11.76373 | 11461 ft | 298 kts | 111° |
| 2026-05-07 05:21 | 45.07379 | 11.79266 | 11261 ft | 298 kts | 80° |
| 2026-05-07 05:21 | 45.09766 | 11.84104 | 10271 ft | 310 kts | 42° |
| 2026-05-07 05:21 | 45.11413 | 11.86101 | 9789 ft | 314 kts | 39° |
| 2026-05-07 05:22 | 45.13123 | 11.88048 | 9334 ft | 315 kts | 38° |
| 2026-05-07 05:22 | 45.14826 | 11.89997 | 8924 ft | 314 kts | 39° |
| 2026-05-07 05:22 | 45.16502 | 11.91974 | 8506 ft | 314 kts | 39° |
| 2026-05-07 05:22 | 45.18158 | 11.93986 | 8085 ft | 313 kts | 40° |
| 2026-05-07 05:23 | 45.19791 | 11.96015 | 7674 ft | 312 kts | 40° |
| 2026-05-07 05:23 | 45.21408 | 11.98047 | 7266 ft | 310 kts | 41° |
| 2026-05-07 05:23 | 45.23014 | 12.00083 | 6839 ft | 309 kts | 41° |
| 2026-05-07 05:23 | 45.24615 | 12.02117 | 6452 ft | 307 kts | 40° |
| 2026-05-07 05:24 | 45.26196 | 12.04124 | 6073 ft | 303 kts | 41° |
| 2026-05-07 05:24 | 45.27761 | 12.06110 | 5665 ft | 300 kts | 41° |
| 2026-05-07 05:24 | 45.29309 | 12.08078 | 5260 ft | 298 kts | 41° |
| 2026-05-07 05:24 | 45.30843 | 12.10029 | 4868 ft | 295 kts | 42° |
| 2026-05-07 05:25 | 45.32361 | 12.11962 | 4465 ft | 289 kts | 42° |
| 2026-05-07 05:25 | 45.33699 | 12.13668 | 4122 ft | 276 kts | 41° |
| 2026-05-07 05:26 | 45.34216 | 12.14326 | 3995 ft | 271 kts | 40° |
| 2026-05-07 05:26 | 45.35421 | 12.15864 | 3687 ft | 261 kts | 40° |
| 2026-05-07 05:27 | 45.36715 | 12.17515 | 3350 ft | 250 kts | 40° |
| 2026-05-07 05:27 | 45.37772 | 12.18864 | 3070 ft | 243 kts | 39° |
| 2026-05-07 05:27 | 45.38071 | 12.19246 | 2993 ft | 241 kts | 39° |
| 2026-05-07 05:28 | 45.38646 | 12.19980 | 2841 ft | 237 kts | 39° |
| 2026-05-07 05:28 | 45.39856 | 12.21526 | 2523 ft | 230 kts | 39° |
| 2026-05-07 05:28 | 45.41030 | 12.23027 | 2220 ft | 224 kts | 39° |
| 2026-05-07 05:28 | 45.41963 | 12.24221 | 1981 ft | 218 kts | 40° |
| 2026-05-07 05:29 | 45.43073 | 12.25641 | 1702 ft | 209 kts | 40° |
| 2026-05-07 05:29 | 45.44108 | 12.26968 | 1425 ft | 190 kts | 41° |
| 2026-05-07 05:29 | 45.45040 | 12.28163 | 1201 ft | 170 kts | 41° |
| 2026-05-07 05:29 | 45.45397 | 12.28620 | 1087 ft | 163 kts | 41° |
| 2026-05-07 05:30 | 45.45451 | 12.28688 | 1069 ft | 162 kts | 40° |
| 2026-05-07 05:30 | 45.46163 | 12.29601 | 882 ft | 150 kts | 40° |
| 2026-05-07 05:30 | 45.46924 | 12.30577 | 684 ft | 145 kts | 41° |
| 2026-05-07 05:31 | 45.47057 | 12.30747 | 660 ft | 144 kts | 41° |
| 2026-05-07 05:31 | 45.47239 | 12.30980 | 634 ft | 144 kts | 41° |
| 2026-05-07 05:31 | 45.47979 | 12.31929 | 436 ft | 142 kts | 41° |
| 2026-05-07 05:32 | 45.48713 | 12.32872 | 248 ft | 142 kts | 41° |
| 2026-05-07 05:32 | 45.49442 | 12.33809 | 57 ft | 141 kts | 40° |
| 2026-05-07 05:32 | 45.50119 | 12.34680 | 15 ft | 106 kts | 42° |
| 2026-05-07 05:32 | 45.50454 | 12.35070 | 10 ft | 21 kts | 3° |
| 2026-05-07 05:33 | 45.50541 | 12.35073 | 12 ft | 3 kts | 9° |
| 2026-05-07 05:33 | 45.47685 | 12.31553 | 523 ft | 143 kts | 41° |
| 2026-05-07 05:34 | 45.48421 | 12.32497 | 324 ft | 142 kts | 41° |
| 2026-05-07 05:34 | 45.49152 | 12.33436 | 136 ft | 142 kts | 41° |
| 2026-05-07 05:34 | 45.49869 | 12.34363 | 11 ft | 131 kts | 41° |
| 2026-05-07 05:34 | 45.50365 | 12.34998 | 11 ft | 53 kts | 42° |
| 2026-05-07 05:35 | 45.50511 | 12.35067 | 13 ft | 11 kts | 7° |
| 2026-05-07 05:35 | 45.50541 | 12.35073 | 12 ft | 0 kts | 9° |
| 2026-05-07 05:35 | 45.49396 | 12.33750 | 68 ft | 141 kts | 40° |
| 2026-05-07 05:35 | 45.50085 | 12.34636 | 14 ft | 111 kts | 41° |
| 2026-05-07 05:36 | 45.50443 | 12.35069 | 10 ft | 30 kts | 10° |
| 2026-05-07 05:36 | 45.50538 | 12.35072 | 12 ft | 11 kts | 9° |
| 2026-05-07 05:36 | 45.49761 | 12.34222 | 16 ft | 135 kts | 41° |
| 2026-05-07 05:36 | 45.50316 | 12.34935 | 12 ft | 67 kts | 42° |
| 2026-05-07 05:37 | 45.50499 | 12.35066 | 11 ft | 12 kts | 351° |
| 2026-05-07 05:37 | 45.50541 | 12.35073 | 12 ft | 0 kts | 9° |
| 2026-05-07 05:37 | 45.50786 | 12.35129 | 16 ft | 70 kts | 8° |
| 2026-05-07 05:38 | 45.49900 | 12.34404 | 10 ft | 0 kts | 42° |
| 2026-05-07 05:40 | 0.00000 | 0.00000 | 1063 ft | 0 kts | 355° |